Time;durP1;ratioP1;P1;durP2;ratioP2;P2;SDS_P1;SDS_P2;PMS_P1;PMS_P2;Temp;Humidity;BMP_temperature;BMP_pressure;BME280_temperature;BME280_humidity;BME280_pressure;Samples;Min_cycle;Max_cycle;Signal;HPM_P1;HPM_P2
2022/04/30 00:02:23;;;;;;;37.90;34.40;;;;;;;10.06;100.00;101810.19;5079221;28;20059;-82
2022/04/30 00:04:50;;;;;;;38.17;34.67;;;;;;;9.89;100.00;101798.00;5080695;28;20452;-82
2022/04/30 00:07:19;;;;;;;36.97;33.97;;;;;;;9.95;100.00;101802.59;5085259;28;20048;-83
2022/04/30 00:09:47;;;;;;;37.72;34.42;;;;;;;10.03;100.00;101804.41;5081831;28;20037;-82
2022/04/30 00:12:15;;;;;;;36.40;33.33;;;;;;;9.97;100.00;101802.44;5082572;28;20040;-83
2022/04/30 00:14:44;;;;;;;38.15;34.67;;;;;;;10.16;100.00;101798.50;5078783;28;20044;-82
2022/04/30 00:17:12;;;;;;;37.45;34.33;;;;;;;10.07;100.00;101797.72;5079380;28;20131;-82
2022/04/30 00:19:40;;;;;;;35.55;32.47;;;;;;;9.94;100.00;101802.78;5086799;28;20049;-83
2022/04/30 00:22:09;;;;;;;36.55;33.08;;;;;;;9.71;100.00;101800.91;5072655;28;20041;-82
2022/04/30 00:24:38;;;;;;;36.25;33.15;;;;;;;9.53;100.00;101809.16;5082337;28;20052;-83
2022/04/30 00:27:05;;;;;;;37.55;34.13;;;;;;;9.82;100.00;101807.66;5081802;28;20143;-83
2022/04/30 00:29:33;;;;;;;36.53;33.33;;;;;;;9.81;100.00;101803.38;5084657;28;20454;-82
2022/04/30 00:32:03;;;;;;;38.10;34.70;;;;;;;9.98;100.00;101807.56;5086247;28;20044;-83
2022/04/30 00:34:30;;;;;;;35.28;32.33;;;;;;;9.77;100.00;101812.66;5074889;28;20052;-82
2022/04/30 00:37:02;;;;;;;37.35;33.67;;;;;;;9.44;100.00;101806.69;5081363;28;20106;-83
2022/04/30 00:39:30;;;;;;;36.23;33.03;;;;;;;9.48;100.00;101810.66;5085329;28;20553;-83
2022/04/30 00:41:57;;;;;;;36.63;33.38;;;;;;;9.61;100.00;101822.34;5083090;28;20123;-82
2022/04/30 00:44:24;;;;;;;38.70;35.13;;;;;;;9.39;100.00;101818.63;5077780;28;20051;-82
2022/04/30 00:46:58;;;;;;;40.58;36.88;;;;;;;9.27;100.00;101813.88;5081314;28;20080;-81
2022/04/30 00:49:25;;;;;;;41.55;37.50;;;;;;;9.03;100.00;101812.13;5076933;28;20105;-82
2022/04/30 00:51:53;;;;;;;41.65;37.90;;;;;;;9.12;100.00;101803.16;5091243;28;20086;-84
2022/04/30 00:54:36;;;;;;;38.17;34.58;;;;;;;9.06;100.00;101812.59;5095920;28;20044;-82
2022/04/30 00:57:17;;;;;;;37.78;34.10;;;;;;;8.99;100.00;101810.81;5092020;28;20044;-82
2022/04/30 00:59:45;;;;;;;39.70;35.80;;;;;;;8.55;100.00;101809.34;5086147;28;20141;-82
2022/04/30 01:02:12;;;;;;;39.00;35.33;;;;;;;8.71;100.00;101816.44;5081457;28;20057;-82
2022/04/30 01:04:39;;;;;;;38.42;34.47;;;;;;;8.30;100.00;101811.13;5083569;28;20058;-83
2022/04/30 01:07:10;;;;;;;39.50;35.75;;;;;;;8.59;100.00;101808.00;5094616;28;20471;-82
2022/04/30 01:09:47;;;;;;;39.25;35.33;;;;;;;8.49;100.00;101802.06;5076880;28;20048;-82
2022/04/30 01:12:15;;;;;;;41.20;37.40;;;;;;;8.27;100.00;101800.88;5085822;28;20044;-83
2022/04/30 01:14:46;;;;;;;37.13;33.42;;;;;;;8.35;100.00;101800.03;5095449;28;20044;-82
2022/04/30 01:17:14;;;;;;;38.80;34.65;;;;;;;8.35;100.00;101802.69;5089689;28;20090;-82
2022/04/30 01:19:43;;;;;;;36.33;32.90;;;;;;;8.26;100.00;101805.34;5082516;28;20047;-82
2022/04/30 01:22:20;;;;;;;37.67;34.17;;;;;;;8.09;100.00;101802.84;5079949;28;20117;-83
2022/04/30 01:24:49;;;;;;;37.22;33.72;;;;;;;8.23;100.00;101796.91;5116692;28;20047;-82
2022/04/30 01:27:17;;;;;;;38.42;34.40;;;;;;;7.89;100.00;101804.94;5076089;28;20142;-81
2022/04/30 01:29:45;;;;;;;35.53;32.22;;;;;;;7.90;100.00;101801.31;5075947;28;20070;-82
2022/04/30 01:37:43;;;;;;;38.40;34.25;;;;;;;7.93;100.00;101796.53;5080161;28;20055;-82
2022/04/30 01:40:13;;;;;;;38.72;34.90;;;;;;;7.91;100.00;101798.50;5084741;28;20053;-82
2022/04/30 01:42:43;;;;;;;40.05;35.85;;;;;;;7.96;100.00;101795.38;5081581;28;20110;-82
2022/04/30 01:45:12;;;;;;;41.08;37.00;;;;;;;7.97;100.00;101799.66;5082513;28;20101;-83
2022/04/30 01:47:42;;;;;;;41.25;36.95;;;;;;;7.79;100.00;101786.56;5096007;28;20048;-82
2022/04/30 01:50:11;;;;;;;41.42;37.42;;;;;;;7.70;100.00;101792.81;5090757;28;20135;-82
2022/04/30 01:52:38;;;;;;;41.47;37.38;;;;;;;7.68;100.00;101787.69;5082444;28;20040;-83
2022/04/30 01:55:05;;;;;;;40.45;36.50;;;;;;;7.70;100.00;101790.16;5084790;28;20076;-83
2022/04/30 01:57:40;;;;;;;47.30;38.45;;;;;;;7.74;100.00;101794.16;5084604;28;20453;-82
2022/04/30 02:02:49;;;;;;;39.53;35.42;;;;;;;7.33;100.00;101784.25;5093918;22;20064;-82
2022/04/30 02:05:26;;;;;;;38.40;34.63;;;;;;;7.51;100.00;101778.88;5058106;28;20052;-82
2022/04/30 02:07:58;;;;;;;40.65;36.47;;;;;;;7.50;100.00;101784.31;5055316;28;20049;-83
2022/04/30 02:10:28;;;;;;;39.03;35.13;;;;;;;7.53;100.00;101773.41;5047528;28;20446;-83
2022/04/30 02:12:59;;;;;;;40.78;36.63;;;;;;;7.12;100.00;101778.53;5055493;28;20041;-82
2022/04/30 02:15:29;;;;;;;38.38;34.60;;;;;;;7.36;100.00;101771.72;5041836;28;20455;-82
2022/04/30 02:17:58;;;;;;;38.92;35.20;;;;;;;7.34;100.00;101770.03;5055116;28;20041;-83
2022/04/30 02:20:29;;;;;;;38.90;35.08;;;;;;;7.20;100.00;101770.66;5055163;28;20055;-83
2022/04/30 02:23:02;;;;;;;41.45;34.92;;;;;;;7.23;100.00;101765.06;5035657;28;20465;-82
2022/04/30 02:25:38;;;;;;;37.10;33.38;;;;;;;7.09;100.00;101768.28;5055413;28;20048;-82
2022/04/30 02:28:08;;;;;;;38.50;34.42;;;;;;;7.22;100.00;101765.19;5050085;28;20053;-82
2022/04/30 02:30:37;;;;;;;36.38;32.85;;;;;;;7.04;100.00;101758.19;5055459;28;20049;-83
2022/04/30 02:33:06;;;;;;;36.78;32.97;;;;;;;7.25;100.00;101763.06;5055977;28;20045;-84
2022/04/30 02:35:34;;;;;;;37.17;33.33;;;;;;;7.14;100.00;101771.28;5056227;28;20118;-82
2022/04/30 02:38:10;;;;;;;38.40;34.28;;;;;;;7.23;100.00;101766.84;5058329;28;20401;-81
2022/04/30 02:40:38;;;;;;;39.13;35.22;;;;;;;7.15;100.00;101767.66;5059081;28;20044;-82
2022/04/30 02:43:08;;;;;;;38.45;34.83;;;;;;;7.15;100.00;101770.28;5057521;28;20102;-82
2022/04/30 02:45:39;;;;;;;37.50;33.90;;;;;;;7.04;100.00;101768.75;5058448;28;20052;-82
2022/04/30 02:48:08;;;;;;;35.75;32.03;;;;;;;6.95;100.00;101769.69;5057467;28;20045;-81
2022/04/30 02:50:36;;;;;;;37.33;33.63;;;;;;;7.09;100.00;101770.94;5057936;28;20052;-82
2022/04/30 02:53:03;;;;;;;37.13;33.35;;;;;;;7.06;100.00;101771.25;5060759;28;20388;-82
2022/04/30 02:55:31;;;;;;;38.97;34.83;;;;;;;6.93;100.00;101765.53;5056491;28;20508;-82
2022/04/30 03:00:45;;;;;;;37.92;34.13;;;;;;;6.92;100.00;101766.53;5053213;28;20554;-82
2022/04/30 03:03:17;;;;;;;38.42;34.67;;;;;;;6.78;100.00;101763.50;5054817;28;20045;-82
2022/04/30 03:05:53;;;;;;;37.10;33.60;;;;;;;6.90;100.00;101761.41;5058915;28;20053;-82
2022/04/30 03:08:21;;;;;;;37.15;33.35;;;;;;;6.77;100.00;101756.53;5059821;28;20114;-81
2022/04/30 03:10:53;;;;;;;38.00;33.97;;;;;;;6.91;100.00;101755.16;5061560;28;20044;-82
2022/04/30 03:13:22;;;;;;;35.53;31.92;;;;;;;6.62;100.00;101753.63;5070805;28;20048;-82
2022/04/30 03:21:41;;;;;;;38.05;34.17;;;;;;;6.59;100.00;101764.50;5056630;28;20052;-82
2022/04/30 03:21:45;;;;;;;35.55;31.85;;;;;;;6.73;100.00;101765.75;5046290;28;20402;-82
2022/04/30 03:24:13;;;;;;;35.53;31.92;;;;;;;6.56;100.00;101770.09;5053360;28;20055;-82
2022/04/30 03:26:42;;;;;;;55.97;34.58;;;;;;;6.74;100.00;101766.59;5050367;28;20045;-82
2022/04/30 03:29:18;;;;;;;33.72;30.25;;;;;;;6.73;100.00;101764.94;5054143;28;20132;-82
2022/04/30 03:31:47;;;;;;;35.47;31.75;;;;;;;6.81;100.00;101770.28;5057459;28;20129;-82
2022/04/30 03:34:23;;;;;;;35.05;31.55;;;;;;;6.66;100.00;101775.28;5052393;28;20457;-83
2022/04/30 03:36:50;;;;;;;34.58;31.25;;;;;;;6.36;100.00;101787.94;5052191;28;20041;-83
2022/04/30 03:39:17;;;;;;;35.70;32.05;;;;;;;6.56;100.00;101785.91;5048868;28;20116;-82
2022/04/30 03:41:44;;;;;;;37.85;34.05;;;;;;;6.50;100.00;101791.00;5053024;28;20523;-81
2022/04/30 03:44:14;;;;;;;36.67;33.08;;;;;;;6.58;100.00;101788.44;5051859;28;20452;-82
2022/04/30 03:46:47;;;;;;;36.10;32.50;;;;;;;6.51;100.00;101790.84;5042663;28;20045;-82
2022/04/30 03:49:24;;;;;;;37.58;33.70;;;;;;;6.56;100.00;101787.75;5034373;28;20131;-82
2022/04/30 03:51:51;;;;;;;37.40;33.33;;;;;;;6.53;100.00;101777.50;5061379;28;20056;-83
2022/04/30 03:54:18;;;;;;;37.88;34.03;;;;;;;6.77;100.00;101792.69;5061996;28;20047;-82
2022/04/30 03:56:58;;;;;;;36.58;32.85;;;;;;;6.84;100.00;101794.56;5053404;28;20401;-82
2022/04/30 03:59:25;;;;;;;34.67;31.25;;;;;;;6.89;100.00;101794.91;5053816;28;20053;-83
2022/04/30 04:01:53;;;;;;;36.92;33.13;;;;;;;6.98;100.00;101801.06;5053758;28;20041;-82
2022/04/30 04:04:26;;;;;;;40.80;36.50;;;;;;;7.42;100.00;101808.09;5053883;28;20044;-82
2022/04/30 04:06:53;;;;;;;39.30;35.35;;;;;;;7.22;100.00;101797.75;5053505;28;20057;-82
2022/04/30 04:09:20;;;;;;;39.40;35.38;;;;;;;7.26;100.00;101795.59;5056256;28;20076;-83
2022/04/30 04:11:47;;;;;;;42.13;37.67;;;;;;;7.46;100.00;101799.66;5054276;28;20055;-83
2022/04/30 04:19:44;;;;;;;37.92;34.22;;;;;;;7.68;100.00;101794.78;5054726;28;20059;-82
2022/04/30 04:22:12;;;;;;;37.78;34.05;;;;;;;7.81;100.00;101803.09;5065591;28;20068;-82
2022/04/30 04:27:23;;;;;;;35.97;32.17;;;;;;;8.06;100.00;101817.22;5055158;28;20051;-83
2022/04/30 04:30:03;;;;;;;35.90;32.60;;;;;;;8.28;100.00;101813.09;5057626;28;20088;-82
2022/04/30 04:32:31;;;;;;;36.67;33.15;;;;;;;8.30;100.00;101812.97;5057493;28;20052;-82
2022/04/30 04:35:17;;;;;;;36.88;33.10;;;;;;;8.46;100.00;101811.16;5049176;28;20111;-82
2022/04/30 04:37:47;;;;;;;35.60;32.30;;;;;;;8.64;100.00;101818.94;5052230;28;20048;-82
2022/04/30 04:40:16;;;;;;;37.05;33.30;;;;;;;8.74;100.00;101813.47;5056443;28;20390;-82
2022/04/30 04:42:46;;;;;;;38.05;34.35;;;;;;;8.90;100.00;101808.16;5056461;28;20107;-82
2022/04/30 04:45:13;;;;;;;39.22;35.47;;;;;;;8.86;100.00;101819.25;5058299;28;20049;-82
2022/04/30 04:47:42;;;;;;;37.90;34.20;;;;;;;9.03;100.00;101814.75;5057306;28;20131;-82
2022/04/30 04:50:12;;;;;;;36.38;33.03;;;;;;;9.15;100.00;101814.22;5063892;28;20447;-82
2022/04/30 04:52:39;;;;;;;34.83;31.73;;;;;;;8.99;100.00;101811.63;5057524;28;20044;-81
2022/04/30 04:55:06;;;;;;;35.83;32.58;;;;;;;9.08;100.00;101812.44;5060750;28;20143;-83
2022/04/30 04:57:36;;;;;;;37.08;33.47;;;;;;;9.26;100.00;101817.50;5056927;28;20045;-83
2022/04/30 05:00:03;;;;;;;35.67;32.35;;;;;;;9.23;100.00;101825.78;5058700;28;20118;-83
2022/04/30 05:02:30;;;;;;;34.38;31.27;;;;;;;9.31;100.00;101818.66;5056452;28;20069;-81
2022/04/30 05:04:59;;;;;;;34.28;31.23;;;;;;;9.34;100.00;101817.50;5058484;28;20052;-82
2022/04/30 05:07:26;;;;;;;34.78;31.77;;;;;;;9.38;100.00;101819.66;5062614;28;20049;-81
2022/04/30 05:09:53;;;;;;;34.22;31.05;;;;;;;9.58;100.00;101827.19;5056918;28;20563;-84
2022/04/30 05:12:19;;;;;;;33.65;30.73;;;;;;;9.61;100.00;101822.34;5057003;28;20084;-81
2022/04/30 05:14:48;;;;;;;35.33;32.03;;;;;;;9.74;100.00;101829.78;5057124;28;20044;-82
2022/04/30 05:17:15;;;;;;;35.70;32.40;;;;;;;9.70;100.00;101832.94;5057699;28;20056;-81
2022/04/30 05:19:42;;;;;;;34.83;31.52;;;;;;;9.45;100.00;101825.09;5060828;28;20103;-82
2022/04/30 05:22:11;;;;;;;34.70;31.88;;;;;;;9.86;100.00;101824.88;5061985;28;20048;-82
2022/04/30 05:24:38;;;;;;;35.38;32.38;;;;;;;9.89;100.00;101827.19;5058578;28;20138;-83
2022/04/30 05:27:08;;;;;;;35.50;32.40;;;;;;;10.08;100.00;101824.09;5060053;28;20439;-83
2022/04/30 05:29:35;;;;;;;32.90;29.95;;;;;;;10.01;100.00;101827.63;5066755;28;20461;-83
2022/04/30 05:32:01;;;;;;;34.30;31.50;;;;;;;10.37;100.00;101830.56;5063289;28;20063;-82
2022/04/30 05:34:29;;;;;;;34.65;31.65;;;;;;;10.64;100.00;101821.22;5054683;28;20055;-83
2022/04/30 05:37:10;;;;;;;35.53;32.42;;;;;;;10.50;100.00;101828.16;5056279;28;20049;-82
2022/04/30 05:39:43;;;;;;;35.67;32.47;;;;;;;10.75;100.00;101834.09;5054518;28;20049;-83
2022/04/30 05:42:15;;;;;;;35.33;32.28;;;;;;;10.77;100.00;101820.59;5055862;28;20485;-82
2022/04/30 05:44:43;;;;;;;36.42;33.20;;;;;;;10.97;100.00;101821.75;5059495;28;20107;-83
2022/04/30 05:47:10;;;;;;;34.00;31.10;;;;;;;11.07;100.00;101823.31;5053745;28;20463;-83
2022/04/30 05:49:37;;;;;;;33.60;30.65;;;;;;;11.43;100.00;101820.75;5056808;28;20072;-82
2022/04/30 05:52:04;;;;;;;32.70;30.00;;;;;;;12.31;100.00;101835.72;5057178;28;20477;-82
2022/04/30 05:54:32;;;;;;;34.28;31.38;;;;;;;12.27;100.00;101833.63;5059936;28;20045;-82
2022/04/30 05:56:59;;;;;;;34.05;31.35;;;;;;;12.69;100.00;101830.13;5057150;28;20464;-82
2022/04/30 05:59:26;;;;;;;32.95;30.35;;;;;;;12.98;100.00;101831.78;5064389;28;20082;-82
2022/04/30 06:01:53;;;;;;;33.13;30.73;;;;;;;13.00;100.00;101835.06;5067128;28;20101;-84
2022/04/30 06:04:22;;;;;;;31.63;29.23;;;;;;;13.21;100.00;101831.50;5064606;28;20114;-83
2022/04/30 06:06:51;;;;;;;31.77;29.30;;;;;;;14.09;100.00;101838.91;5055488;28;20045;-82
2022/04/30 06:09:19;;;;;;;28.85;26.92;;;;;;;15.60;100.00;101831.00;5052674;28;20053;-83
2022/04/30 06:11:54;;;;;;;29.70;27.70;;;;;;;15.44;100.00;101828.81;5065946;28;20052;-82
2022/04/30 06:14:21;;;;;;;30.30;28.15;;;;;;;13.70;100.00;101833.22;5051132;28;20127;-83
2022/04/30 06:16:48;;;;;;;30.90;28.60;;;;;;;13.37;100.00;101830.38;5054625;28;20053;-83
2022/04/30 06:19:15;;;;;;;29.98;27.98;;;;;;;12.90;100.00;101825.78;5047085;28;20123;-82
2022/04/30 06:21:45;;;;;;;30.02;27.90;;;;;;;13.26;100.00;101831.78;5054376;28;20052;-83
2022/04/30 06:24:13;;;;;;;31.15;29.05;;;;;;;13.58;100.00;101828.66;5053333;28;20051;-82
2022/04/30 06:26:41;;;;;;;30.38;28.17;;;;;;;13.60;100.00;101838.13;5054882;28;20448;-82
2022/04/30 06:29:20;;;;;;;30.00;27.90;;;;;;;14.82;100.00;101834.47;5057293;28;20136;-85
2022/04/30 06:31:55;;;;;;;29.33;27.33;;;;;;;15.22;100.00;101838.94;5060301;28;20059;-85
2022/04/30 06:34:26;;;;;;;29.58;27.42;;;;;;;14.83;100.00;101827.28;5051227;28;20114;-85
2022/04/30 06:36:53;;;;;;;29.20;27.35;;;;;;;14.10;100.00;101824.50;5051518;28;20397;-84
2022/04/30 06:39:20;;;;;;;30.25;28.35;;;;;;;14.30;100.00;101825.38;5054656;28;20052;-84
2022/04/30 06:41:46;;;;;;;31.10;29.17;;;;;;;14.08;100.00;101834.59;5059392;28;20052;-84
2022/04/30 06:44:13;;;;;;;29.08;27.08;;;;;;;14.18;100.00;101825.13;5055661;28;20049;-85
2022/04/30 06:46:45;;;;;;;30.95;28.73;;;;;;;14.27;100.00;101815.09;5063795;28;20130;-84
2022/04/30 06:49:12;;;;;;;29.17;27.20;;;;;;;14.46;100.00;101826.00;5063691;28;20136;-83
2022/04/30 06:51:38;;;;;;;29.88;27.73;;;;;;;14.87;100.00;101812.47;5060541;28;20049;-86
2022/04/30 06:57:08;;;;;;;28.13;26.40;;;;;;;14.56;100.00;101837.97;5051402;28;20067;-83
2022/04/30 06:59:37;;;;;;;30.13;28.13;;;;;;;14.48;100.00;101821.28;5064486;28;20049;-84
2022/04/30 07:02:07;;;;;;;29.88;27.92;;;;;;;14.68;100.00;101821.31;5056682;28;20063;-85
2022/04/30 07:04:34;;;;;;;31.25;29.17;;;;;;;15.11;100.00;101816.31;5063770;28;20060;-83
2022/04/30 07:07:01;;;;;;;30.92;29.02;;;;;;;15.41;100.00;101813.97;5060391;28;20491;-84
2022/04/30 07:09:32;;;;;;;28.45;26.73;;;;;;;15.07;100.00;101825.81;5060610;28;20428;-84
2022/04/30 07:11:59;;;;;;;29.08;27.15;;;;;;;15.45;100.00;101809.03;5060272;28;20091;-84
2022/04/30 07:14:26;;;;;;;30.40;27.98;;;;;;;15.34;100.00;101816.69;5055358;28;20048;-84
2022/04/30 07:16:52;;;;;;;29.85;28.05;;;;;;;15.29;100.00;101813.00;5056879;28;20045;-84
2022/04/30 07:19:21;;;;;;;32.92;30.73;;;;;;;15.31;100.00;101813.59;5054799;28;20045;-85
2022/04/30 07:21:47;;;;;;;29.98;27.88;;;;;;;15.26;100.00;101816.91;5059538;28;20052;-86
2022/04/30 07:24:14;;;;;;;30.90;28.48;;;;;;;15.58;100.00;101820.50;5057894;28;20049;-83
2022/04/30 07:26:42;;;;;;;29.58;27.73;;;;;;;15.69;100.00;101815.53;5051370;28;20068;-86
2022/04/30 07:29:09;;;;;;;30.73;28.88;;;;;;;15.90;100.00;101817.91;5060953;28;20048;-85
2022/04/30 07:31:36;;;;;;;30.38;28.42;;;;;;;15.60;100.00;101824.81;5060056;28;20089;-84
2022/04/30 07:34:04;;;;;;;29.25;27.55;;;;;;;15.83;100.00;101822.50;5056041;28;20080;-84
2022/04/30 07:36:32;;;;;;;29.70;27.90;;;;;;;16.20;100.00;101820.81;5057541;28;20049;-86
2022/04/30 07:38:59;;;;;;;29.23;27.52;;;;;;;16.05;100.00;101817.63;5059176;28;20052;-85
2022/04/30 07:41:25;;;;;;;30.98;28.92;;;;;;;16.03;100.00;101820.50;5057443;28;20053;-86
2022/04/30 07:43:52;;;;;;;28.80;26.88;;;;;;;15.78;100.00;101820.44;5058715;28;20531;-84
2022/04/30 07:46:19;;;;;;;30.40;28.45;;;;;;;15.32;100.00;101820.59;5059061;28;20049;-85
2022/04/30 07:48:46;;;;;;;31.33;29.30;;;;;;;15.76;100.00;101822.53;5053852;28;20047;-85
2022/04/30 07:51:17;;;;;;;28.02;26.33;;;;;;;16.19;100.00;101827.22;5062897;28;20105;-84
2022/04/30 07:53:45;;;;;;;28.88;27.10;;;;;;;15.92;100.00;101823.88;5062303;28;20048;-86
2022/04/30 07:56:12;;;;;;;30.90;28.90;;;;;;;16.01;100.00;101822.59;5058322;28;20056;-84
2022/04/30 07:58:39;;;;;;;30.33;28.45;;;;;;;16.40;100.00;101818.00;5060164;28;20054;-84
2022/04/30 08:01:06;;;;;;;30.90;29.00;;;;;;;16.34;100.00;101826.94;5056279;28;20048;-84
2022/04/30 08:03:34;;;;;;;28.42;26.52;;;;;;;16.00;100.00;101814.75;5057588;28;20106;-85
2022/04/30 08:06:01;;;;;;;27.98;26.17;;;;;;;16.24;100.00;101816.66;5060009;28;20423;-84
2022/04/30 08:08:28;;;;;;;27.80;25.98;;;;;;;16.45;100.00;101817.34;5059499;28;20056;-84
2022/04/30 08:10:56;;;;;;;28.25;26.40;;;;;;;17.00;100.00;101809.44;5053884;28;20049;-85
2022/04/30 08:13:25;;;;;;;28.70;27.00;;;;;;;16.97;100.00;101809.06;5056824;28;20078;-86
2022/04/30 08:15:53;;;;;;;28.80;27.00;;;;;;;17.18;100.00;101814.00;5065027;28;20366;-85
2022/04/30 08:18:20;;;;;;;28.83;27.13;;;;;;;17.02;100.00;101812.75;5062671;28;20444;-84
2022/04/30 08:20:47;;;;;;;27.80;26.10;;;;;;;17.34;100.00;101804.56;5057591;28;20063;-85
2022/04/30 08:23:15;;;;;;;29.73;27.73;;;;;;;17.60;100.00;101811.47;5058187;28;20132;-84
2022/04/30 08:25:42;;;;;;;34.33;32.42;;;;;;;17.49;100.00;101806.84;5055910;28;20050;-84
2022/04/30 08:28:10;;;;;;;27.60;25.90;;;;;;;17.60;100.00;101808.78;5056727;28;20476;-85
2022/04/30 08:30:37;;;;;;;29.90;28.10;;;;;;;17.39;100.00;101802.81;5063807;28;20052;-86
2022/04/30 08:33:05;;;;;;;29.20;27.40;;;;;;;17.76;100.00;101805.47;5052791;28;20053;-85
2022/04/30 08:35:32;;;;;;;29.45;27.67;;;;;;;17.56;100.00;101803.03;5056329;28;20063;-84
2022/04/30 08:37:59;;;;;;;28.92;27.17;;;;;;;17.89;100.00;101807.19;5064106;28;20045;-86
2022/04/30 08:40:26;;;;;;;28.92;27.08;;;;;;;17.90;100.00;101808.00;5061450;28;20476;-84
2022/04/30 08:42:52;;;;;;;30.52;28.08;;;;;;;18.38;100.00;101804.41;5055601;28;20056;-84
2022/04/30 08:45:23;;;;;;;28.70;26.83;;;;;;;17.92;100.00;101798.66;5054986;28;20076;-85
2022/04/30 08:47:52;;;;;;;28.42;26.67;;;;;;;18.17;100.00;101800.38;5060099;28;20124;-84
2022/04/30 08:50:18;;;;;;;28.85;26.92;;;;;;;17.58;100.00;101787.53;5066265;28;20409;-84
2022/04/30 08:52:45;;;;;;;30.10;28.33;;;;;;;18.76;100.00;101779.78;5057893;28;20044;-84
2022/04/30 08:55:12;;;;;;;29.75;27.85;;;;;;;19.03;100.00;101779.25;5058225;28;20389;-84
2022/04/30 08:57:39;;;;;;;29.17;27.17;;;;;;;18.87;100.00;101783.50;5054706;28;20155;-86
2022/04/30 09:00:08;;;;;;;29.08;27.38;;;;;;;19.28;100.00;101771.72;5059158;28;20110;-85
2022/04/30 09:02:36;;;;;;;27.77;26.05;;;;;;;19.06;100.00;101773.41;5059347;28;20094;-85
2022/04/30 09:05:03;;;;;;;26.63;25.10;;;;;;;18.58;100.00;101790.59;5062855;28;20370;-86
2022/04/30 09:07:30;;;;;;;28.58;26.77;;;;;;;19.01;100.00;101776.81;5056138;28;20044;-85
2022/04/30 09:09:58;;;;;;;27.05;25.45;;;;;;;18.51;100.00;101785.34;5059218;28;20041;-85
2022/04/30 09:12:26;;;;;;;27.65;25.73;;;;;;;18.29;100.00;101785.91;5063259;28;20048;-84
2022/04/30 09:14:53;;;;;;;27.15;25.35;;;;;;;18.52;100.00;101782.44;5058839;28;20045;-84
2022/04/30 09:17:22;;;;;;;27.95;26.35;;;;;;;17.98;100.00;101781.63;5064371;28;20450;-84
2022/04/30 09:19:55;;;;;;;27.85;25.98;;;;;;;18.54;100.00;101784.88;5057500;28;20048;-85
2022/04/30 09:22:29;;;;;;;28.48;26.77;;;;;;;17.81;100.00;101781.44;5073840;28;20106;-83
2022/04/30 09:24:56;;;;;;;27.40;25.80;;;;;;;17.88;100.00;101778.66;5070773;28;20068;-84
2022/04/30 09:27:23;;;;;;;28.30;26.70;;;;;;;17.98;100.00;101773.56;5067227;28;20117;-84
2022/04/30 09:29:52;;;;;;;28.05;26.35;;;;;;;17.63;100.00;101762.66;5062021;28;20048;-84
2022/04/30 09:32:19;;;;;;;27.73;26.15;;;;;;;18.35;100.00;101772.59;5061914;28;20122;-85
2022/04/30 09:37:42;;;;;;;28.70;26.98;;;;;;;18.81;100.00;101758.34;5055110;28;20060;-85
2022/04/30 09:40:19;;;;;;;31.75;29.73;;;;;;;18.19;100.00;101761.47;5063446;28;20060;-87
2022/04/30 09:42:46;;;;;;;27.60;26.00;;;;;;;18.62;100.00;101763.00;5059327;28;20460;-85
2022/04/30 09:45:23;;;;;;;27.42;25.83;;;;;;;18.60;100.00;101773.19;5061664;28;20140;-84
2022/04/30 09:47:51;;;;;;;27.90;26.20;;;;;;;18.23;100.00;101773.38;5053459;28;20053;-84
2022/04/30 09:55:52;;;;;;;29.83;27.80;;;;;;;18.25;100.00;101765.91;5057405;28;20403;-85
2022/04/30 09:58:22;;;;;;;28.50;26.80;;;;;;;18.15;100.00;101767.50;5053958;28;20060;-85
2022/04/30 10:00:49;;;;;;;29.13;27.25;;;;;;;17.31;100.00;101764.75;5066388;28;20114;-84
2022/04/30 10:03:17;;;;;;;27.45;25.63;;;;;;;18.15;100.00;101759.44;5059017;28;20045;-83
2022/04/30 10:05:44;;;;;;;26.05;24.55;;;;;;;18.34;100.00;101762.88;5062626;28;20052;-85
2022/04/30 10:08:13;;;;;;;28.23;26.35;;;;;;;18.24;100.00;101764.25;5057554;28;20063;-84
2022/04/30 10:10:47;;;;;;;28.48;26.77;;;;;;;17.38;100.00;101758.22;5062606;28;20067;-83
2022/04/30 10:13:24;;;;;;;27.70;26.08;;;;;;;18.45;100.00;101764.75;5061721;28;20053;-85
2022/04/30 10:15:53;;;;;;;29.50;27.25;;;;;;;18.75;100.00;101748.53;5066391;28;20040;-83
2022/04/30 10:18:24;;;;;;;29.48;27.77;;;;;;;18.30;100.00;101749.88;5053743;28;20045;-84
2022/04/30 10:20:51;;;;;;;28.35;26.45;;;;;;;18.27;100.00;101741.47;5063124;28;20078;-84
2022/04/30 10:23:20;;;;;;;28.40;26.60;;;;;;;18.52;100.00;101746.66;5058964;28;20052;-84
2022/04/30 10:25:48;;;;;;;28.00;26.30;;;;;;;18.83;100.00;101732.03;5062953;28;20049;-85
2022/04/30 10:28:19;;;;;;;28.60;26.80;;;;;;;18.64;100.00;101725.09;5067151;28;20055;-84
2022/04/30 10:30:49;;;;;;;28.60;26.90;;;;;;;18.29;100.00;101739.38;5057229;28;20037;-84
2022/04/30 10:33:16;;;;;;;27.70;26.10;;;;;;;17.92;100.00;101731.47;5056483;28;20465;-84
2022/04/30 10:35:44;;;;;;;28.25;26.50;;;;;;;18.28;100.00;101733.19;5062995;28;20041;-84
2022/04/30 10:38:17;;;;;;;27.38;25.88;;;;;;;18.04;100.00;101739.56;5057633;28;20059;-84
2022/04/30 10:40:49;;;;;;;28.05;26.45;;;;;;;17.85;100.00;101739.66;5060784;28;20135;-85
2022/04/30 10:43:18;;;;;;;29.30;27.50;;;;;;;17.81;100.00;101730.38;5054972;28;20049;-85
2022/04/30 10:45:45;;;;;;;28.88;27.08;;;;;;;18.19;100.00;101741.81;5066697;28;20055;-83
2022/04/30 10:48:12;;;;;;;29.00;27.30;;;;;;;18.19;100.00;101736.44;5067689;28;20481;-84
2022/04/30 10:50:40;;;;;;;28.13;26.20;;;;;;;18.37;100.00;101738.22;5057565;28;20052;-85
2022/04/30 10:53:08;;;;;;;28.40;26.60;;;;;;;17.98;100.00;101724.38;5061358;28;20044;-84
2022/04/30 10:55:36;;;;;;;28.42;26.55;;;;;;;18.14;100.00;101726.38;5055697;28;20083;-84
2022/04/30 10:58:04;;;;;;;28.63;27.02;;;;;;;18.46;100.00;101718.81;5064151;28;20064;-84
2022/04/30 11:00:31;;;;;;;28.60;26.90;;;;;;;18.05;100.00;101720.50;5063904;28;20052;-85
2022/04/30 11:03:08;;;;;;;27.88;26.10;;;;;;;18.12;100.00;101717.72;5055874;28;20053;-84
2022/04/30 11:05:35;;;;;;;28.30;26.70;;;;;;;17.80;100.00;101723.38;5061528;28;20047;-84
2022/04/30 11:08:04;;;;;;;28.35;26.65;;;;;;;18.29;100.00;101715.97;5054981;28;20045;-83
2022/04/30 11:10:31;;;;;;;27.67;26.17;;;;;;;18.59;100.00;101709.66;5056786;28;20401;-85
2022/04/30 11:13:08;;;;;;;27.73;26.02;;;;;;;18.52;100.00;101714.38;5057584;28;20045;-84
2022/04/30 11:15:36;;;;;;;27.95;26.35;;;;;;;18.51;100.00;101715.41;5060019;28;20049;-85
2022/04/30 11:18:03;;;;;;;28.33;26.52;;;;;;;18.43;100.00;101716.59;5063094;28;20044;-84
2022/04/30 11:20:30;;;;;;;28.42;26.73;;;;;;;18.30;100.00;101714.09;5056042;28;20049;-84
2022/04/30 11:22:58;;;;;;;28.38;26.67;;;;;;;18.81;100.00;101712.59;5048318;28;20487;-85
2022/04/30 11:25:33;;;;;;;28.73;26.75;;;;;;;18.53;100.00;101705.22;5065564;28;20064;-85
2022/04/30 11:28:00;;;;;;;27.58;26.00;;;;;;;18.92;100.00;101701.00;5054695;28;20036;-83
2022/04/30 11:30:28;;;;;;;28.38;26.77;;;;;;;18.75;100.00;101702.78;5054371;28;20108;-85
2022/04/30 11:32:55;;;;;;;28.92;27.23;;;;;;;18.86;100.00;101699.25;5060733;28;20149;-84
2022/04/30 11:35:22;;;;;;;28.75;26.95;;;;;;;18.75;100.00;101690.13;5056314;28;20041;-84
2022/04/30 11:37:49;;;;;;;27.50;25.90;;;;;;;19.30;99.01;101696.88;5056161;28;20041;-85
2022/04/30 11:40:16;;;;;;;28.85;27.10;;;;;;;19.42;96.00;101694.16;5056313;28;20066;-85
2022/04/30 11:42:43;;;;;;;30.33;28.52;;;;;;;19.59;93.53;101700.38;5058821;28;20148;-85
2022/04/30 11:45:10;;;;;;;29.40;27.48;;;;;;;19.52;93.24;101690.84;5063989;28;20056;-86
2022/04/30 11:47:40;;;;;;;29.23;27.42;;;;;;;19.14;89.41;101693.09;5055460;28;20049;-85